Time;durP1;ratioP1;P1;durP2;ratioP2;P2;SDS_P1;SDS_P2;PMS_P1;PMS_P2;Temp;Humidity;BMP_temperature;BMP_pressure;BME280_temperature;BME280_humidity;BME280_pressure;Samples;Min_cycle;Max_cycle;Signal;HPM_P1;HPM_P2
2023/08/09 00:00:08;;;;;;;2.35;0.60;;;22.20;96.70;;;;;;5065057;28;20118;-78
2023/08/09 00:02:36;;;;;;;1.67;0.63;;;22.10;96.70;;;;;;5055012;28;21123;-78
2023/08/09 00:05:07;;;;;;;2.38;0.88;;;22.20;96.70;;;;;;5066541;28;20131;-78
2023/08/09 00:07:35;;;;;;;3.95;1.10;;;22.10;96.70;;;;;;5065432;28;20044;-78
2023/08/09 00:10:04;;;;;;;3.03;1.20;;;22.00;96.70;;;;;;5065773;28;20044;-78
2023/08/09 00:12:32;;;;;;;4.00;1.52;;;22.10;96.70;;;;;;5064461;28;20048;-78
2023/08/09 00:15:00;;;;;;;5.13;1.42;;;22.00;96.70;;;;;;5058199;28;20045;-78
2023/08/09 00:17:28;;;;;;;2.88;1.02;;;22.00;96.70;;;;;;5066999;28;20426;-77
2023/08/09 00:19:56;;;;;;;2.42;0.98;;;22.00;96.70;;;;;;5044816;28;20045;-78
2023/08/09 00:22:26;;;;;;;2.90;0.90;;;22.00;96.70;;;;;;5078219;28;20056;-78
2023/08/09 00:24:54;;;;;;;3.15;0.90;;;22.10;96.70;;;;;;5066535;28;20068;-77
2023/08/09 00:27:23;;;;;;;1.60;0.70;;;22.00;96.70;;;;;;5060514;28;20126;-78
2023/08/09 00:29:52;;;;;;;2.20;0.80;;;21.90;96.70;;;;;;5065941;28;20148;-78
2023/08/09 00:32:22;;;;;;;4.63;1.17;;;22.00;96.70;;;;;;5063917;28;20498;-77
2023/08/09 00:34:51;;;;;;;2.78;1.20;;;22.00;96.70;;;;;;5065222;28;20040;-78
2023/08/09 00:37:21;;;;;;;3.97;1.17;;;21.90;96.70;;;;;;5063134;28;20108;-78
2023/08/09 00:39:52;;;;;;;4.55;1.45;;;21.80;96.70;;;;;;5044244;28;20131;-78
2023/08/09 00:42:21;;;;;;;3.63;0.80;;;21.70;96.70;;;;;;5061775;28;20051;-77
2023/08/09 00:44:50;;;;;;;2.33;0.80;;;21.80;96.70;;;;;;5076561;28;20106;-77
2023/08/09 00:47:20;;;;;;;3.00;1.02;;;21.80;96.70;;;;;;5066340;28;20043;-78
2023/08/09 00:49:50;;;;;;;2.60;1.20;;;21.60;96.70;;;;;;5064021;28;20044;-77
2023/08/09 00:52:26;;;;;;;2.45;0.93;;;21.60;96.70;;;;;;5047764;28;20494;-78
2023/08/09 00:55:00;;;;;;;4.40;0.80;;;21.60;96.70;;;;;;5064145;28;20083;-78
2023/08/09 00:57:30;;;;;;;3.25;0.68;;;21.60;96.70;;;;;;5064100;28;20071;-77
2023/08/09 00:59:59;;;;;;;2.28;0.85;;;21.60;96.70;;;;;;5064381;28;20049;-78
2023/08/09 01:02:29;;;;;;;3.30;0.95;;;21.60;96.70;;;;;;5065600;28;20127;-78
2023/08/09 01:05:04;;;;;;;6.40;0.93;;;21.70;96.70;;;;;;5065347;28;20036;-79
2023/08/09 01:07:44;;;;;;;1.23;0.50;;;21.60;96.70;;;;;;5064471;28;20044;-77
2023/08/09 01:10:19;;;;;;;2.30;0.60;;;21.50;96.70;;;;;;5064901;28;20508;-78
2023/08/09 01:12:54;;;;;;;1.60;0.60;;;21.50;96.70;;;;;;5063440;28;20071;-78
2023/08/09 01:15:24;;;;;;;1.65;0.50;;;21.40;96.70;;;;;;5047171;28;20052;-77
2023/08/09 01:17:55;;;;;;;2.38;0.63;;;21.30;96.70;;;;;;5063677;28;20513;-77
2023/08/09 01:20:25;;;;;;;3.90;0.70;;;21.20;96.70;;;;;;5065587;28;20569;-78
2023/08/09 01:23:00;;;;;;;2.65;0.60;;;21.20;96.70;;;;;;5063731;28;20064;-77
2023/08/09 01:25:32;;;;;;;1.83;0.60;;;21.20;96.70;;;;;;5062900;28;20151;-78
2023/08/09 01:28:03;;;;;;;3.92;0.70;;;21.10;96.70;;;;;;5063290;28;20082;-78
2023/08/09 01:30:33;;;;;;;3.03;0.80;;;21.00;96.70;;;;;;5055262;28;20079;-77
2023/08/09 01:33:02;;;;;;;5.50;0.60;;;21.20;96.70;;;;;;5063527;28;20052;-78
2023/08/09 01:35:35;;;;;;;2.08;0.47;;;21.20;96.70;;;;;;5065524;28;20090;-78
2023/08/09 01:38:10;;;;;;;1.25;0.80;;;21.20;96.70;;;;;;5058997;28;20522;-78
2023/08/09 01:40:41;;;;;;;1.27;0.45;;;21.30;96.70;;;;;;5063780;28;20402;-78
2023/08/09 01:43:11;;;;;;;0.90;0.45;;;21.20;96.70;;;;;;5064694;28;20506;-78
2023/08/09 01:45:40;;;;;;;1.00;0.57;;;21.20;96.70;;;;;;5063523;28;20506;-77
2023/08/09 01:48:09;;;;;;;2.63;0.47;;;21.20;96.70;;;;;;5064190;28;20044;-78
2023/08/09 01:50:44;;;;;;;4.60;0.80;;;21.20;96.70;;;;;;5063836;28;20056;-78
2023/08/09 01:53:13;;;;;;;1.42;0.50;;;21.20;96.70;;;;;;5063629;28;20090;-78
2023/08/09 01:55:44;;;;;;;1.42;0.60;;;21.10;96.70;;;;;;5063521;28;20556;-78
2023/08/09 01:58:13;;;;;;;3.88;1.08;;;21.10;96.70;;;;;;5046215;28;20106;-78
2023/08/09 02:00:42;;;;;;;2.80;0.50;;;21.10;96.70;;;;;;5062495;28;20043;-79
2023/08/09 02:03:12;;;;;;;5.38;0.80;;;21.00;96.70;;;;;;5062785;28;20130;-77
2023/08/09 02:05:41;;;;;;;1.38;0.52;;;21.00;96.70;;;;;;5064120;28;20044;-78
2023/08/09 02:08:10;;;;;;;1.05;0.40;;;20.90;96.70;;;;;;5063051;28;20045;-78
2023/08/09 02:10:39;;;;;;;2.53;0.57;;;20.90;96.70;;;;;;5062752;28;20048;-77
2023/08/09 02:13:10;;;;;;;1.35;0.57;;;20.90;96.70;;;;;;5053920;28;20083;-78
2023/08/09 02:15:40;;;;;;;3.03;0.80;;;21.00;96.70;;;;;;5056815;28;20512;-78
2023/08/09 02:18:15;;;;;;;2.55;0.57;;;21.10;96.70;;;;;;5062569;28;20048;-77
2023/08/09 02:20:44;;;;;;;4.63;0.95;;;21.00;96.70;;;;;;5058137;28;20052;-77
2023/08/09 02:23:13;;;;;;;2.53;1.00;;;20.90;96.70;;;;;;5061755;28;20457;-78
2023/08/09 02:25:42;;;;;;;4.85;0.80;;;20.80;96.70;;;;;;5037656;28;20948;-78
2023/08/09 02:28:13;;;;;;;2.67;0.60;;;20.80;96.70;;;;;;5062253;28;20047;-78
2023/08/09 02:30:42;;;;;;;1.27;0.70;;;20.80;96.70;;;;;;5064121;28;20044;-77
2023/08/09 02:33:11;;;;;;;2.20;0.70;;;20.90;96.70;;;;;;5063879;28;20052;-78
2023/08/09 02:35:53;;;;;;;1.92;0.88;;;20.90;96.70;;;;;;5062754;28;20037;-78
2023/08/09 02:38:23;;;;;;;2.78;0.85;;;20.90;96.70;;;;;;5058987;28;20457;-78
2023/08/09 02:40:53;;;;;;;2.00;0.70;;;20.80;96.70;;;;;;5062787;28;20749;-78
2023/08/09 02:43:24;;;;;;;5.55;1.00;;;20.70;96.70;;;;;;5062216;28;20098;-78
2023/08/09 02:45:54;;;;;;;1.27;0.70;;;20.60;96.70;;;;;;5064160;28;20064;-77
2023/08/09 02:48:24;;;;;;;2.58;1.00;;;20.50;96.70;;;;;;5064005;28;20045;-78
2023/08/09 02:50:53;;;;;;;4.60;0.63;;;20.50;96.70;;;;;;5046378;28;20494;-80
2023/08/09 02:53:27;;;;;;;2.83;0.60;;;20.60;96.70;;;;;;5063855;28;20040;-77
2023/08/09 02:55:56;;;;;;;0.68;0.50;;;20.70;96.70;;;;;;5069748;28;20094;-78
2023/08/09 02:58:28;;;;;;;4.03;0.80;;;20.70;96.70;;;;;;5044875;28;20047;-78
2023/08/09 03:00:57;;;;;;;5.25;0.70;;;20.70;96.70;;;;;;5062206;28;20076;-77
2023/08/09 03:03:26;;;;;;;1.83;0.65;;;20.60;96.70;;;;;;5057838;28;20045;-78
2023/08/09 03:05:55;;;;;;;2.35;0.90;;;20.60;96.70;;;;;;5063722;28;20154;-77
2023/08/09 03:08:24;;;;;;;2.63;0.77;;;20.60;96.70;;;;;;5063667;28;20666;-78
2023/08/09 03:10:53;;;;;;;2.97;0.98;;;20.50;96.70;;;;;;5061413;28;20063;-78
2023/08/09 03:13:22;;;;;;;2.15;0.73;;;20.50;96.70;;;;;;5061369;28;20044;-78
2023/08/09 03:15:53;;;;;;;1.27;0.50;;;20.40;96.70;;;;;;5059105;28;20049;-77
2023/08/09 03:18:23;;;;;;;6.47;0.85;;;20.30;96.70;;;;;;5058195;28;20165;-78
2023/08/09 03:20:52;;;;;;;1.40;0.80;;;20.40;96.70;;;;;;5061713;28;20048;-78
2023/08/09 03:23:21;;;;;;;7.32;0.88;;;20.20;96.70;;;;;;5060833;28;20290;-78
2023/08/09 03:25:50;;;;;;;1.27;0.80;;;20.30;96.70;;;;;;5061579;28;20755;-77
2023/08/09 03:28:20;;;;;;;3.33;0.63;;;20.60;96.70;;;;;;5061438;28;20538;-78
2023/08/09 03:30:49;;;;;;;1.85;0.50;;;20.50;96.70;;;;;;5061976;28;20051;-77
2023/08/09 03:33:19;;;;;;;6.80;0.60;;;20.60;96.70;;;;;;5063468;28;20155;-78
2023/08/09 03:35:48;;;;;;;2.15;0.60;;;20.50;96.70;;;;;;5061508;28;20049;-78
2023/08/09 03:38:18;;;;;;;1.67;0.80;;;20.40;96.70;;;;;;5061893;28;20452;-77
2023/08/09 03:40:47;;;;;;;1.13;0.50;;;20.50;96.70;;;;;;5061711;28;20478;-77
2023/08/09 03:43:16;;;;;;;1.65;0.68;;;20.60;96.70;;;;;;5061566;28;20055;-78
2023/08/09 03:45:45;;;;;;;1.58;0.47;;;20.50;96.70;;;;;;5049298;28;20098;-77
2023/08/09 03:48:14;;;;;;;3.28;0.75;;;20.30;96.70;;;;;;5065162;28;20047;-76
2023/08/09 03:50:45;;;;;;;1.05;0.45;;;20.40;96.70;;;;;;5057013;28;20140;-78
2023/08/09 03:53:14;;;;;;;9.07;1.02;;;20.30;96.70;;;;;;5082183;28;20044;-79
2023/08/09 03:55:46;;;;;;;1.98;0.82;;;20.20;96.70;;;;;;5063948;28;20089;-78
2023/08/09 03:58:15;;;;;;;1.50;0.75;;;20.30;96.70;;;;;;5064957;28;20072;-78
2023/08/09 04:00:44;;;;;;;1.33;0.45;;;20.30;96.70;;;;;;5064832;28;20602;-78
2023/08/09 04:03:13;;;;;;;1.75;0.43;;;20.30;96.70;;;;;;5055904;28;20048;-78
2023/08/09 04:05:42;;;;;;;1.77;0.70;;;20.20;96.70;;;;;;5063723;28;20063;-79
2023/08/09 04:08:12;;;;;;;3.53;0.82;;;20.30;96.70;;;;;;5079853;28;20059;-78
2023/08/09 04:10:41;;;;;;;2.28;0.65;;;20.20;96.70;;;;;;5064676;28;20343;-78
2023/08/09 04:13:10;;;;;;;2.55;0.77;;;20.10;96.70;;;;;;5062229;28;20040;-78
2023/08/09 04:15:39;;;;;;;1.88;0.50;;;20.00;96.70;;;;;;5047252;28;20048;-77
2023/08/09 04:18:08;;;;;;;2.58;0.85;;;20.00;96.70;;;;;;5064904;28;20036;-78
2023/08/09 04:20:40;;;;;;;3.08;0.80;;;19.90;96.70;;;;;;5065575;28;20441;-78
2023/08/09 04:23:09;;;;;;;1.40;0.77;;;19.90;96.70;;;;;;5064333;28;20063;-77
2023/08/09 04:25:39;;;;;;;2.50;0.70;;;19.90;96.70;;;;;;5067079;28;20128;-77
2023/08/09 04:28:08;;;;;;;2.03;0.70;;;19.90;96.70;;;;;;5058349;28;20045;-79
2023/08/09 04:30:41;;;;;;;2.58;0.98;;;19.80;96.70;;;;;;5066417;28;20390;-78
2023/08/09 04:33:10;;;;;;;3.45;0.55;;;19.80;96.70;;;;;;5064917;28;20099;-78
2023/08/09 04:35:42;;;;;;;2.70;1.05;;;19.90;96.70;;;;;;5058197;28;20051;-79
2023/08/09 04:38:11;;;;;;;3.78;0.77;;;19.80;96.70;;;;;;5065830;28;20102;-78
2023/08/09 04:40:41;;;;;;;2.13;0.65;;;19.70;96.70;;;;;;5064992;28;21279;-79
2023/08/09 04:43:11;;;;;;;2.10;0.57;;;19.80;96.70;;;;;;5065986;28;20133;-78
2023/08/09 04:45:39;;;;;;;3.00;1.00;;;19.90;96.70;;;;;;5048202;28;20052;-78
2023/08/09 04:48:16;;;;;;;5.00;1.38;;;19.90;96.70;;;;;;5064757;28;20046;-77
2023/08/09 04:50:45;;;;;;;1.98;0.82;;;19.80;96.70;;;;;;5065676;28;20068;-79
2023/08/09 04:53:14;;;;;;;5.13;0.80;;;19.80;96.70;;;;;;5065823;28;21029;-78
2023/08/09 04:55:46;;;;;;;3.63;0.85;;;19.80;96.70;;;;;;5060489;28;20048;-78
2023/08/09 04:58:15;;;;;;;3.03;0.70;;;19.60;96.70;;;;;;5066037;28;20044;-78
2023/08/09 05:00:44;;;;;;;2.17;0.93;;;19.60;96.70;;;;;;5044807;28;20048;-77
2023/08/09 05:03:12;;;;;;;2.47;0.68;;;19.70;96.70;;;;;;5065758;28;20044;-79
2023/08/09 05:05:41;;;;;;;1.20;0.52;;;19.90;96.70;;;;;;5064623;28;20724;-79
2023/08/09 05:08:10;;;;;;;1.50;0.60;;;19.90;96.70;;;;;;5063179;28;20056;-78
2023/08/09 05:10:39;;;;;;;1.65;0.60;;;20.00;96.70;;;;;;5060975;28;20051;-78
2023/08/09 05:13:10;;;;;;;3.22;0.57;;;20.00;96.70;;;;;;5065113;28;20053;-77
2023/08/09 05:15:39;;;;;;;2.22;0.60;;;20.00;96.70;;;;;;5065668;28;20127;-79
2023/08/09 05:18:08;;;;;;;1.48;0.65;;;19.90;96.70;;;;;;5065723;28;20048;-77
2023/08/09 05:20:37;;;;;;;3.00;0.77;;;19.90;96.70;;;;;;5063715;28;20037;-79
2023/08/09 05:23:06;;;;;;;4.28;1.13;;;19.90;96.70;;;;;;5064893;28;20120;-79
2023/08/09 05:25:35;;;;;;;4.20;1.40;;;19.90;96.70;;;;;;5065316;28;20128;-78
2023/08/09 05:28:04;;;;;;;4.30;1.20;;;20.10;96.70;;;;;;5063996;28;20052;-79
2023/08/09 05:30:35;;;;;;;6.10;1.40;;;20.00;96.70;;;;;;5062700;28;20165;-78
2023/08/09 05:33:04;;;;;;;3.85;1.58;;;20.00;96.70;;;;;;5046033;28;20052;-78
2023/08/09 05:35:33;;;;;;;3.17;1.42;;;19.90;96.70;;;;;;5059742;28;20598;-78
2023/08/09 05:38:02;;;;;;;2.72;1.58;;;19.90;96.70;;;;;;5064083;28;20048;-78
2023/08/09 05:40:31;;;;;;;4.60;1.83;;;20.00;96.70;;;;;;5059067;28;20056;-78
2023/08/09 05:43:00;;;;;;;3.35;1.38;;;20.10;96.70;;;;;;5056709;28;20044;-76
2023/08/09 05:45:29;;;;;;;3.90;1.85;;;20.20;96.70;;;;;;5063918;28;20044;-77
2023/08/09 05:47:59;;;;;;;6.80;1.60;;;20.30;96.70;;;;;;5062776;28;21094;-77
2023/08/09 05:50:28;;;;;;;4.45;1.80;;;20.30;96.70;;;;;;5060339;28;20059;-77
2023/08/09 05:52:58;;;;;;;3.00;1.40;;;20.40;96.70;;;;;;5062774;28;20528;-76
2023/08/09 05:55:27;;;;;;;4.80;1.70;;;20.50;96.70;;;;;;5056112;28;20041;-77
2023/08/09 05:57:56;;;;;;;2.60;1.67;;;20.50;96.70;;;;;;5063439;28;20056;-76
2023/08/09 06:00:25;;;;;;;3.33;1.92;;;20.60;96.70;;;;;;5064467;28;20051;-76
2023/08/09 06:02:54;;;;;;;4.65;1.40;;;20.60;96.70;;;;;;5064678;28;20079;-76
2023/08/09 06:05:25;;;;;;;3.35;1.63;;;20.60;96.70;;;;;;5063543;28;20072;-76
2023/08/09 06:07:55;;;;;;;5.57;1.33;;;20.70;96.70;;;;;;5056811;28;20040;-81
2023/08/09 06:10:25;;;;;;;2.38;1.42;;;20.80;96.70;;;;;;5066918;28;20052;-81
2023/08/09 06:13:11;;;;;;;2.55;1.40;;;20.80;96.70;;;;;;5066818;28;20048;-82
2023/08/09 06:15:40;;;;;;;3.22;1.48;;;20.90;96.70;;;;;;5065402;28;20056;-81
2023/08/09 06:18:09;;;;;;;3.67;1.15;;;20.90;96.70;;;;;;5056951;28;20048;-82
2023/08/09 06:20:42;;;;;;;4.85;1.17;;;21.00;96.70;;;;;;5065670;28;20135;-80
2023/08/09 06:23:11;;;;;;;2.95;1.02;;;21.00;96.70;;;;;;5064948;28;20048;-82
2023/08/09 06:25:40;;;;;;;2.25;0.80;;;21.10;96.70;;;;;;5073627;28;20045;-80
2023/08/09 06:28:09;;;;;;;2.90;1.10;;;21.20;96.70;;;;;;5047181;28;20067;-81
2023/08/09 06:30:38;;;;;;;2.92;1.17;;;21.30;96.70;;;;;;5064656;28;20048;-80
2023/08/09 06:33:07;;;;;;;4.32;0.90;;;21.30;96.70;;;;;;5065288;28;20056;-80
2023/08/09 06:35:36;;;;;;;3.45;0.90;;;21.30;96.70;;;;;;5064545;28;20048;-79
2023/08/09 06:38:07;;;;;;;2.75;1.27;;;21.30;96.70;;;;;;5070971;28;20044;-79
2023/08/09 06:40:43;;;;;;;5.63;1.27;;;21.30;96.70;;;;;;5065370;28;20049;-79
2023/08/09 06:43:12;;;;;;;2.75;1.05;;;21.30;96.70;;;;;;5061649;28;21024;-81
2023/08/09 06:45:44;;;;;;;5.00;1.10;;;21.30;96.70;;;;;;5059770;28;20109;-79
2023/08/09 06:48:14;;;;;;;2.83;0.95;;;21.30;96.70;;;;;;5063034;28;20099;-78
2023/08/09 06:50:46;;;;;;;3.00;0.77;;;21.30;96.70;;;;;;5063122;28;20102;-80
2023/08/09 06:53:16;;;;;;;3.92;0.93;;;21.40;96.70;;;;;;5060506;28;20041;-80
2023/08/09 06:55:46;;;;;;;3.17;0.70;;;21.60;96.70;;;;;;5065092;28;20040;-78
2023/08/09 06:58:15;;;;;;;2.42;0.73;;;21.60;96.70;;;;;;5063933;28;20039;-81
2023/08/09 07:00:46;;;;;;;2.90;0.90;;;21.60;96.70;;;;;;5062346;28;20049;-80
2023/08/09 07:03:15;;;;;;;3.03;0.68;;;21.60;96.70;;;;;;5063085;28;20041;-81
2023/08/09 07:05:44;;;;;;;3.38;0.95;;;21.70;96.70;;;;;;5059480;28;20041;-80
2023/08/09 07:08:15;;;;;;;2.60;1.00;;;21.70;96.70;;;;;;5063105;28;20044;-81
2023/08/09 07:10:44;;;;;;;4.13;0.80;;;21.80;96.70;;;;;;5065135;28;20070;-78
2023/08/09 07:13:13;;;;;;;3.92;1.35;;;21.90;96.70;;;;;;5047374;28;20040;-80
2023/08/09 07:15:42;;;;;;;3.53;0.70;;;22.10;96.70;;;;;;5064511;28;20047;-80
2023/08/09 07:18:11;;;;;;;3.72;1.20;;;22.20;96.70;;;;;;5056610;28;20040;-80
2023/08/09 07:20:40;;;;;;;3.22;0.90;;;22.30;96.70;;;;;;5068069;28;20777;-79
2023/08/09 07:23:09;;;;;;;3.95;1.15;;;22.40;96.70;;;;;;5067065;28;20052;-80
2023/08/09 07:25:39;;;;;;;3.25;1.00;;;22.50;96.70;;;;;;5067069;28;20140;-81
2023/08/09 07:28:08;;;;;;;2.72;0.88;;;22.50;96.70;;;;;;5066643;28;20212;-79
2023/08/09 07:30:37;;;;;;;2.00;1.00;;;22.50;96.70;;;;;;5066534;28;20186;-81
2023/08/09 07:33:06;;;;;;;2.22;0.90;;;22.60;96.70;;;;;;5066623;28;20048;-80
2023/08/09 07:35:35;;;;;;;3.65;1.15;;;22.60;96.70;;;;;;5066383;28;20044;-79
2023/08/09 07:38:04;;;;;;;2.15;1.33;;;22.70;96.70;;;;;;5068069;28;20083;-80
2023/08/09 07:40:33;;;;;;;1.67;1.00;;;22.70;96.70;;;;;;5068572;28;20045;-80
2023/08/09 07:43:04;;;;;;;1.75;0.80;;;22.60;96.70;;;;;;5061229;28;20052;-80
2023/08/09 07:45:33;;;;;;;1.83;1.10;;;22.70;96.70;;;;;;5067887;28;20864;-80
2023/08/09 07:48:02;;;;;;;2.90;0.93;;;22.80;96.70;;;;;;5064192;28;20041;-80
2023/08/09 07:50:31;;;;;;;1.25;0.70;;;22.90;96.70;;;;;;5067469;28;20055;-80
2023/08/09 07:52:59;;;;;;;3.63;1.08;;;22.90;96.70;;;;;;5067450;28;20044;-79
2023/08/09 07:55:27;;;;;;;0.98;0.70;;;22.90;96.70;;;;;;5066245;28;20060;-81
2023/08/09 07:57:55;;;;;;;1.15;0.63;;;23.00;96.70;;;;;;5059855;28;20052;-80
2023/08/09 08:00:25;;;;;;;3.63;0.85;;;23.10;96.70;;;;;;5066332;28;20051;-81
2023/08/09 08:03:02;;;;;;;2.50;0.57;;;23.20;96.70;;;;;;5081630;28;20059;-81
2023/08/09 08:05:30;;;;;;;2.10;0.68;;;23.30;96.70;;;;;;5066495;28;20045;-79
2023/08/09 08:07:58;;;;;;;2.30;0.65;;;23.40;96.70;;;;;;5066044;28;20068;-79
2023/08/09 08:10:26;;;;;;;8.73;1.10;;;23.40;96.70;;;;;;5065819;28;20049;-80
2023/08/09 08:12:54;;;;;;;1.95;0.82;;;23.40;96.70;;;;;;5065405;28;20182;-80
2023/08/09 08:15:22;;;;;;;2.35;0.65;;;23.50;96.70;;;;;;5065746;28;20040;-80
2023/08/09 08:17:52;;;;;;;2.15;0.60;;;23.50;96.70;;;;;;5065807;28;20056;-79
2023/08/09 08:20:20;;;;;;;4.00;0.80;;;23.60;96.70;;;;;;5065296;28;20040;-80
2023/08/09 08:22:49;;;;;;;5.10;0.88;;;23.60;96.70;;;;;;5056940;28;20048;-80
2023/08/09 08:25:19;;;;;;;24.30;1.70;;;23.60;96.70;;;;;;5059221;28;20123;-79
2023/08/09 08:27:47;;;;;;;4.63;0.75;;;23.70;96.70;;;;;;5066668;28;20516;-80
2023/08/09 08:30:17;;;;;;;4.88;1.38;;;23.70;96.70;;;;;;5066562;28;20036;-79
2023/08/09 08:32:46;;;;;;;6.10;0.88;;;23.70;96.70;;;;;;5064954;28;20390;-80
2023/08/09 08:35:20;;;;;;;4.25;0.80;;;23.90;96.70;;;;;;5065844;28;20047;-80
2023/08/09 08:37:50;;;;;;;4.68;0.85;;;24.00;96.70;;;;;;5066246;28;20043;-79
2023/08/09 08:40:19;;;;;;;4.57;0.65;;;24.10;96.70;;;;;;5063742;28;20126;-80
2023/08/09 08:42:48;;;;;;;1.77;0.63;;;24.10;96.70;;;;;;5063313;28;20053;-78
2023/08/09 08:45:17;;;;;;;1.65;0.63;;;24.10;96.70;;;;;;5064792;28;20044;-79
2023/08/09 08:47:46;;;;;;;2.05;0.80;;;24.10;96.70;;;;;;5055537;28;20067;-79
2023/08/09 08:50:16;;;;;;;1.30;0.70;;;24.20;96.70;;;;;;5063129;28;20573;-79
2023/08/09 08:52:46;;;;;;;2.42;0.77;;;24.20;96.70;;;;;;5063206;28;20060;-78
2023/08/09 08:55:15;;;;;;;4.65;0.63;;;24.30;96.70;;;;;;5048972;28;20469;-80
2023/08/09 08:57:46;;;;;;;3.78;0.82;;;24.50;96.70;;;;;;5062525;28;20418;-79
2023/08/09 09:00:16;;;;;;;3.00;0.65;;;24.60;96.70;;;;;;5062872;28;20075;-78
2023/08/09 09:02:56;;;;;;;2.78;0.68;;;24.70;96.70;;;;;;5064208;28;20060;-79
2023/08/09 09:05:26;;;;;;;2.72;0.80;;;24.80;96.70;;;;;;5063452;28;20469;-80
2023/08/09 09:07:56;;;;;;;4.40;0.73;;;24.90;96.70;;;;;;5063107;28;20064;-80
2023/08/09 09:10:25;;;;;;;2.30;0.75;;;25.00;96.70;;;;;;5046545;28;20049;-79
2023/08/09 09:12:55;;;;;;;1.75;0.73;;;25.00;96.70;;;;;;5063628;28;20044;-79
2023/08/09 09:15:26;;;;;;;2.38;0.90;;;25.00;96.70;;;;;;5062782;28;20048;-79
2023/08/09 09:17:55;;;;;;;4.00;1.13;;;25.00;96.70;;;;;;5063160;28;20110;-81
2023/08/09 09:20:29;;;;;;;1.38;0.70;;;25.20;96.70;;;;;;5063845;28;20110;-80
2023/08/09 09:22:59;;;;;;;2.47;1.05;;;25.20;96.70;;;;;;5058898;28;20417;-81
2023/08/09 09:25:27;;;;;;;4.45;0.88;;;25.30;96.70;;;;;;5065093;28;20121;-80
2023/08/09 09:27:57;;;;;;;2.72;0.90;;;25.30;96.70;;;;;;5063919;28;20587;-79
2023/08/09 09:30:29;;;;;;;4.13;0.80;;;25.40;96.70;;;;;;5064118;28;20047;-81
2023/08/09 09:32:59;;;;;;;2.50;0.70;;;25.50;96.70;;;;;;5013869;28;1438833;-79
2023/08/09 09:35:32;;;;;;;2.47;0.55;;;25.60;96.70;;;;;;5060397;28;20072;-79
2023/08/09 09:38:03;;;;;;;5.50;1.13;;;25.70;96.70;;;;;;5063594;28;20521;-77
2023/08/09 09:40:33;;;;;;;2.35;0.75;;;25.70;96.70;;;;;;5063425;28;20056;-79
2023/08/09 09:43:04;;;;;;;3.28;0.65;;;25.80;96.70;;;;;;5041776;28;20091;-78
2023/08/09 09:45:33;;;;;;;2.08;0.50;;;25.90;96.70;;;;;;5063285;28;20163;-80
2023/08/09 09:48:02;;;;;;;3.75;0.90;;;26.10;96.70;;;;;;5064323;28;20074;-79
2023/08/09 09:50:33;;;;;;;3.25;0.75;;;26.10;96.70;;;;;;5060272;28;20059;-79
2023/08/09 09:53:04;;;;;;;4.43;0.93;;;26.10;96.70;;;;;;5063737;28;20048;-81
2023/08/09 09:55:33;;;;;;;1.70;0.52;;;26.10;96.70;;;;;;5063713;28;20493;-81
2023/08/09 09:58:01;;;;;;;1.90;0.90;;;26.20;96.70;;;;;;5056249;28;20483;-80
2023/08/09 10:00:31;;;;;;;2.45;0.85;;;26.20;96.70;;;;;;5064765;28;20044;-79
2023/08/09 10:03:01;;;;;;;3.80;0.80;;;26.30;96.70;;;;;;5063484;28;20079;-79
2023/08/09 10:05:35;;;;;;;1.40;0.47;;;26.30;96.70;;;;;;5062993;28;20139;-78
2023/08/09 10:08:06;;;;;;;2.88;1.00;;;26.50;96.70;;;;;;5061831;28;20515;-78
2023/08/09 10:10:44;;;;;;;1.45;0.60;;;26.70;96.70;;;;;;5062973;28;20068;-79
2023/08/09 10:13:15;;;;;;;2.13;0.85;;;26.80;96.70;;;;;;5062176;28;20048;-78
2023/08/09 10:15:48;;;;;;;1.42;0.57;;;26.80;96.70;;;;;;5064461;28;20044;-79
2023/08/09 10:18:19;;;;;;;3.50;0.90;;;27.00;96.70;;;;;;5063748;28;20494;-79
2023/08/09 10:20:52;;;;;;;2.35;0.70;;;27.10;96.70;;;;;;5062908;28;20474;-79
2023/08/09 10:23:21;;;;;;;2.67;0.70;;;27.20;96.70;;;;;;5063890;28;20422;-79
2023/08/09 10:25:50;;;;;;;3.47;1.00;;;27.30;96.70;;;;;;5062820;28;20051;-78
2023/08/09 10:28:19;;;;;;;2.22;0.80;;;27.30;96.70;;;;;;5062418;28;20059;-78
2023/08/09 10:30:49;;;;;;;2.10;0.85;;;27.30;96.70;;;;;;5064212;28;20072;-78
2023/08/09 10:33:21;;;;;;;3.15;0.77;;;27.50;96.70;;;;;;5063808;28;20060;-79
2023/08/09 10:35:52;;;;;;;1.83;0.80;;;27.50;96.70;;;;;;5062682;28;20044;-79
2023/08/09 10:38:37;;;;;;;3.78;1.10;;;27.60;96.70;;;;;;5064045;28;20052;-78
2023/08/09 10:41:15;;;;;;;3.22;1.00;;;27.60;96.70;;;;;;5063120;28;20456;-80
2023/08/09 10:43:43;;;;;;;5.18;1.13;;;27.80;96.70;;;;;;5062390;28;20085;-80
2023/08/09 10:46:19;;;;;;;3.65;0.82;;;27.90;96.70;;;;;;5059010;28;20049;-80
2023/08/09 10:48:51;;;;;;;;;;;27.90;96.70;;;;;;5062683;28;20040;-79
2023/08/09 10:51:22;;;;;;;2.33;0.80;;;28.00;96.70;;;;;;5070882;28;19973;-80
2023/08/09 10:53:55;;;;;;;1.17;0.70;;;28.10;96.70;;;;;;5065999;28;20055;-78
2023/08/09 10:56:34;;;;;;;2.03;0.90;;;28.20;96.70;;;;;;5070781;28;20049;-80
2023/08/09 10:59:08;;;;;;;3.75;0.82;;;28.30;96.70;;;;;;5065679;28;20051;-79
2023/08/09 11:01:37;;;;;;;2.38;1.00;;;28.20;96.70;;;;;;5066726;28;20055;-78
2023/08/09 11:04:06;;;;;;;5.18;0.93;;;28.30;96.70;;;;;;5067188;28;20040;-79
2023/08/09 11:06:40;;;;;;;5.70;1.20;;;28.60;96.70;;;;;;5069057;28;20051;-79
2023/08/09 11:09:09;;;;;;;3.47;1.00;;;28.60;96.70;;;;;;5061100;28;20112;-82
2023/08/09 11:11:39;;;;;;;2.58;0.80;;;28.60;96.70;;;;;;5050847;28;20417;-80
2023/08/09 11:14:08;;;;;;;3.08;1.00;;;28.60;96.70;;;;;;5061959;28;20127;-80
2023/08/09 11:16:37;;;;;;;3.10;0.95;;;28.70;96.70;;;;;;5066245;28;20102;-79
2023/08/09 11:19:10;;;;;;;1.92;0.90;;;28.70;96.70;;;;;;5067941;28;20045;-80
2023/08/09 11:21:57;;;;;;;3.45;1.27;;;28.70;96.70;;;;;;5066470;28;20052;-80
2023/08/09 11:24:25;;;;;;;3.50;1.33;;;28.70;96.70;;;;;;5067482;28;20186;-79
2023/08/09 11:26:55;;;;;;;4.25;1.10;;;28.90;96.70;;;;;;5066248;28;20044;-79
2023/08/09 11:29:28;;;;;;;3.65;1.25;;;29.10;96.70;;;;;;5050445;28;20757;-79
2023/08/09 11:31:58;;;;;;;2.33;1.00;;;29.10;96.70;;;;;;5065071;28;20064;-79
2023/08/09 11:34:26;;;;;;;4.93;1.20;;;29.30;96.70;;;;;;5065784;28;20044;-79
2023/08/09 11:36:56;;;;;;;6.95;1.23;;;29.40;96.70;;;;;;5067635;28;20051;-80
2023/08/09 11:39:26;;;;;;;2.25;0.90;;;29.40;96.70;;;;;;5049577;28;20048;-79
2023/08/09 11:41:56;;;;;;;4.50;1.30;;;29.40;96.70;;;;;;5048871;28;20487;-79
2023/08/09 11:44:27;;;;;;;3.00;1.10;;;29.50;96.70;;;;;;5064002;28;20052;-79
2023/08/09 11:46:56;;;;;;;2.78;1.13;;;29.50;96.70;;;;;;5067191;28;20131;-79
2023/08/09 11:49:27;;;;;;;3.72;1.10;;;29.40;96.70;;;;;;5065443;28;20135;-79
2023/08/09 11:51:59;;;;;;;2.47;1.10;;;29.50;96.70;;;;;;5065573;28;20057;-79
2023/08/09 11:54:30;;;;;;;3.17;1.40;;;29.80;96.70;;;;;;5065206;28;20131;-79
2023/08/09 11:57:01;;;;;;;2.45;1.15;;;29.80;96.70;;;;;;5065482;28;20036;-80
2023/08/09 11:59:29;;;;;;;8.32;1.95;;;29.80;96.70;;;;;;5065937;28;20041;-80
2023/08/09 12:01:58;;;;;;;6.20;1.48;;;29.90;96.70;;;;;;5067530;28;20041;-79
2023/08/09 12:04:29;;;;;;;3.28;1.25;;;29.80;96.70;;;;;;5065252;28;20037;-80
2023/08/09 12:07:02;;;;;;;3.40;1.17;;;29.90;96.70;;;;;;5067615;28;20548;-80
2023/08/09 12:09:34;;;;;;;2.63;1.38;;;29.90;96.70;;;;;;5065866;28;20144;-79
2023/08/09 12:12:07;;;;;;;4.75;1.70;;;30.00;96.70;;;;;;5066995;28;20056;-80
2023/08/09 12:14:37;;;;;;;3.35;1.20;;;30.10;96.70;;;;;;5066963;28;20628;-81
2023/08/09 12:17:07;;;;;;;3.80;1.40;;;30.30;96.70;;;;;;5066578;28;20044;-80
2023/08/09 12:19:36;;;;;;;11.07;2.00;;;30.40;96.70;;;;;;5065116;28;20044;-79
2023/08/09 12:22:07;;;;;;;3.97;1.30;;;30.50;96.70;;;;;;5067241;28;20055;-80
2023/08/09 12:24:36;;;;;;;3.50;1.60;;;30.30;96.70;;;;;;5065121;28;20051;-79
2023/08/09 12:27:05;;;;;;;3.17;1.42;;;30.50;96.70;;;;;;5064866;28;20128;-79
2023/08/09 12:29:34;;;;;;;2.60;1.20;;;30.40;96.70;;;;;;5048577;28;20056;-80
2023/08/09 12:32:04;;;;;;;2.53;1.45;;;30.40;96.70;;;;;;5064550;28;20057;-80
2023/08/09 12:34:33;;;;;;;3.70;1.33;;;30.40;96.70;;;;;;5064603;28;20655;-79
2023/08/09 12:37:01;;;;;;;6.80;1.90;;;30.50;96.70;;;;;;5064967;28;20076;-79
2023/08/09 12:39:31;;;;;;;3.20;1.27;;;30.30;96.70;;;;;;5061800;28;20037;-79
2023/08/09 12:42:00;;;;;;;1.83;1.08;;;30.40;96.70;;;;;;5066157;28;20059;-80
2023/08/09 12:44:29;;;;;;;3.03;0.93;;;30.50;96.70;;;;;;5064274;28;20120;-80
2023/08/09 12:46:58;;;;;;;2.17;1.00;;;30.60;96.70;;;;;;5056367;28;20048;-79
2023/08/09 12:49:27;;;;;;;2.00;0.98;;;30.60;96.70;;;;;;5064559;28;20064;-79
2023/08/09 12:51:55;;;;;;;2.95;1.13;;;30.30;96.70;;;;;;5064648;28;20036;-79
2023/08/09 12:54:24;;;;;;;3.75;1.38;;;30.30;96.70;;;;;;5064502;28;20063;-80
2023/08/09 12:56:54;;;;;;;1.90;0.80;;;30.30;96.70;;;;;;5064299;28;20063;-80
2023/08/09 12:59:23;;;;;;;3.53;1.10;;;30.40;96.70;;;;;;5064259;28;20119;-80
2023/08/09 13:01:52;;;;;;;5.40;1.17;;;30.30;96.70;;;;;;5065991;28;20044;-80